createdAt,value
2019-03-11T00:00:25.340Z,10.07
2019-03-11T00:03:16.399Z,9.73
2019-03-11T00:06:06.239Z,9.77
2019-03-11T00:08:55.678Z,9.70
2019-03-11T00:11:47.308Z,9.50
2019-03-11T00:14:36.825Z,9.40
2019-03-11T00:17:25.981Z,9.40
2019-03-11T00:20:16.692Z,9.57
2019-03-11T00:23:06.275Z,9.87
2019-03-11T00:25:55.964Z,9.50
2019-03-11T00:28:44.742Z,9.53
2019-03-11T00:31:34.647Z,9.40
2019-03-11T00:34:24.408Z,9.33
2019-03-11T00:37:14.427Z,9.20
2019-03-11T00:40:04.775Z,10.47
2019-03-11T00:42:53.493Z,9.67
2019-03-11T00:45:42.151Z,9.80
2019-03-11T00:48:30.934Z,9.27
2019-03-11T00:51:19.704Z,9.73
2019-03-11T00:54:08.716Z,9.37
2019-03-11T00:56:58.444Z,8.87
2019-03-11T00:59:48.048Z,9.40
2019-03-11T01:02:36.964Z,9.30
2019-03-11T01:05:26.677Z,9.17
2019-03-11T01:08:16.240Z,9.10
2019-03-11T01:11:05.111Z,10.13
2019-03-11T01:13:54.763Z,9.13
2019-03-11T01:16:44.307Z,9.73
2019-03-11T01:19:34.050Z,9.20
2019-03-11T01:22:23.794Z,9.53
2019-03-11T01:25:14.137Z,9.40
2019-03-11T01:28:03.781Z,10.17
2019-03-11T01:30:53.421Z,9.60
2019-03-11T01:33:43.136Z,9.47
2019-03-11T01:36:32.123Z,9.87
2019-03-11T01:39:21.039Z,9.60
2019-03-11T01:42:10.024Z,10.00
2019-03-11T01:44:59.731Z,9.70
2019-03-11T01:47:49.273Z,9.90
2019-03-11T01:50:38.362Z,9.40
2019-03-11T01:53:28.022Z,9.73
2019-03-11T01:56:17.727Z,9.90
2019-03-11T01:59:07.482Z,10.33
2019-03-11T02:01:57.302Z,10.50
2019-03-11T02:04:46.799Z,9.60
2019-03-11T02:07:36.954Z,10.17
2019-03-11T02:10:25.795Z,9.90
2019-03-11T02:13:15.461Z,9.80
2019-03-11T02:16:04.552Z,9.90
2019-03-11T02:18:54.303Z,9.50
2019-03-11T02:21:45.182Z,9.87
2019-03-11T02:24:34.569Z,10.27
2019-03-11T02:27:24.243Z,10.20
2019-03-11T02:30:14.177Z,9.97
2019-03-11T02:33:03.783Z,9.30
2019-03-11T02:35:52.475Z,9.20
2019-03-11T02:38:41.703Z,9.83
2019-03-11T02:41:31.324Z,9.57
2019-03-11T02:44:20.805Z,9.60
2019-03-11T02:47:09.913Z,10.13
2019-03-11T02:49:59.159Z,9.53
2019-03-11T02:52:48.609Z,9.37
2019-03-11T02:55:37.631Z,9.43
2019-03-11T02:58:27.311Z,9.33
2019-03-11T03:01:36.216Z,9.50
2019-03-11T03:04:29.555Z,9.53
2019-03-11T03:07:19.060Z,9.47
2019-03-11T03:10:08.999Z,10.10
2019-03-11T03:12:58.560Z,9.20
2019-03-11T03:15:48.127Z,9.40
2019-03-11T03:18:37.886Z,9.33
2019-03-11T03:21:27.441Z,9.73
2019-03-11T03:24:17.243Z,9.77
2019-03-11T03:27:06.169Z,9.20
2019-03-11T03:29:55.167Z,9.43
2019-03-11T03:32:44.340Z,9.10
2019-03-11T03:35:34.120Z,9.80
2019-03-11T03:38:30.661Z,9.33
2019-03-11T03:41:13.775Z,9.67
2019-03-11T03:44:05.578Z,9.73
2019-03-11T03:46:55.064Z,9.50
2019-03-11T03:49:44.626Z,9.80
2019-03-11T03:52:33.640Z,9.73
2019-03-11T03:55:23.503Z,9.90
2019-03-11T03:58:13.364Z,9.60
2019-03-11T04:01:03.062Z,9.30
2019-03-11T04:03:52.716Z,9.87
2019-03-11T04:06:41.479Z,9.60
2019-03-11T04:09:30.441Z,9.67
2019-03-11T04:12:20.094Z,9.87
2019-03-11T04:15:09.791Z,9.20
2019-03-11T04:17:59.572Z,9.67
2019-03-11T04:20:49.632Z,9.67
2019-03-11T04:23:39.242Z,9.77
2019-03-11T04:26:31.545Z,9.70
2019-03-11T04:29:21.040Z,9.90
2019-03-11T04:32:10.591Z,9.40
2019-03-11T04:34:59.834Z,9.77
2019-03-11T04:37:49.533Z,9.77
2019-03-11T04:40:39.269Z,9.60
2019-03-11T04:43:28.990Z,9.50
2019-03-11T04:46:18.460Z,10.33
2019-03-11T04:49:07.167Z,9.50
2019-03-11T04:51:56.158Z,9.33
2019-03-11T04:54:46.215Z,10.00
2019-03-11T04:57:43.550Z,9.50
2019-03-11T05:00:33.504Z,9.53
2019-03-11T05:03:23.059Z,10.53
2019-03-11T05:06:12.983Z,9.50
2019-03-11T05:09:02.960Z,9.53
2019-03-11T05:11:54.767Z,9.40
2019-03-11T05:14:44.100Z,9.97
2019-03-11T05:17:35.013Z,9.57
2019-03-11T05:20:23.818Z,9.50
2019-03-11T05:23:13.582Z,9.60
2019-03-11T05:26:03.143Z,9.70
2019-03-11T05:28:53.625Z,10.03
2019-03-11T05:31:44.547Z,9.70
2019-03-11T05:34:33.184Z,9.40
2019-03-11T05:37:22.928Z,9.50
2019-03-11T05:40:12.816Z,9.60
2019-03-11T05:43:02.083Z,9.70
2019-03-11T05:45:51.562Z,9.83
2019-03-11T05:48:41.334Z,9.80
2019-03-11T05:51:32.157Z,9.63
2019-03-11T05:54:22.204Z,10.50
2019-03-11T05:57:11.130Z,10.00
2019-03-11T06:00:00.559Z,9.90
2019-03-11T06:02:49.490Z,9.83
2019-03-11T06:05:38.770Z,9.50
2019-03-11T06:08:27.967Z,9.80
2019-03-11T06:11:18.951Z,10.00
2019-03-11T06:14:08.526Z,9.60
2019-03-11T06:16:57.484Z,9.83
2019-03-11T06:19:48.603Z,10.60
2019-03-11T06:22:37.610Z,10.50
2019-03-11T06:25:27.705Z,10.83
2019-03-11T06:28:17.017Z,10.33
2019-03-11T06:31:06.755Z,9.70
2019-03-11T06:33:55.571Z,10.23
2019-03-11T06:36:45.067Z,10.67
2019-03-11T06:39:34.544Z,9.77
2019-03-11T06:42:24.192Z,10.00
2019-03-11T06:45:13.766Z,9.80
2019-03-11T06:48:04.476Z,10.50
2019-03-11T06:50:54.404Z,10.07
2019-03-11T06:53:43.295Z,10.10
2019-03-11T06:56:32.714Z,9.70
2019-03-11T06:59:22.195Z,9.53
2019-03-11T07:02:13.063Z,9.80
2019-03-11T07:05:02.618Z,9.63
2019-03-11T07:07:52.029Z,9.77
2019-03-11T07:10:41.466Z,9.30
2019-03-11T07:13:30.454Z,9.53
2019-03-11T07:16:19.102Z,9.00
2019-03-11T07:19:08.596Z,9.10
2019-03-11T07:21:58.329Z,9.43
2019-03-11T07:24:49.446Z,10.13
2019-03-11T07:27:38.368Z,9.77
2019-03-11T07:30:27.193Z,9.00
2019-03-11T07:33:16.579Z,9.40
2019-03-11T07:36:06.607Z,9.70
2019-03-11T07:38:56.128Z,10.00
2019-03-11T07:41:44.816Z,9.90
2019-03-11T07:44:35.370Z,9.20
2019-03-11T07:47:25.208Z,9.40
2019-03-11T07:50:15.972Z,9.53
2019-03-11T07:53:06.376Z,9.00
2019-03-11T07:55:56.075Z,10.07
2019-03-11T07:58:45.844Z,9.97
2019-03-11T08:01:35.367Z,9.50
2019-03-11T08:04:25.493Z,9.30
2019-03-11T08:07:15.394Z,9.33
2019-03-11T08:10:05.950Z,9.30
2019-03-11T08:12:55.835Z,9.50
2019-03-11T08:15:44.799Z,9.43
2019-03-11T08:18:35.296Z,9.20
2019-03-11T08:21:25.054Z,9.20
2019-03-11T08:24:16.794Z,9.37
2019-03-11T08:27:06.837Z,9.40
2019-03-11T08:29:55.819Z,9.30
2019-03-11T08:32:45.398Z,9.17
2019-03-11T08:35:35.785Z,9.30
2019-03-11T08:38:24.614Z,9.63
2019-03-11T08:41:13.331Z,10.63
2019-03-11T08:44:02.892Z,9.80
2019-03-11T08:46:51.612Z,10.30
2019-03-11T08:49:41.082Z,9.93
2019-03-11T08:52:30.736Z,10.43
2019-03-11T08:55:20.336Z,9.67
2019-03-11T08:58:09.263Z,10.23
2019-03-11T09:00:59.018Z,9.70
2019-03-11T09:03:48.201Z,9.70
2019-03-11T09:06:38.428Z,11.07
2019-03-11T09:09:31.607Z,12.30
2019-03-11T09:12:22.031Z,12.73
2019-03-11T09:15:13.075Z,10.20
2019-03-11T09:18:03.952Z,10.10
2019-03-11T09:20:53.920Z,10.73
2019-03-11T09:23:42.723Z,10.33
2019-03-11T09:26:31.322Z,10.60
2019-03-11T09:29:22.200Z,10.17
2019-03-11T09:32:11.874Z,10.50
2019-03-11T09:35:01.819Z,10.10
2019-03-11T09:37:51.246Z,10.97
2019-03-11T09:40:41.208Z,10.00
2019-03-11T09:43:29.940Z,9.60
2019-03-11T09:46:19.367Z,9.33
2019-03-11T09:49:09.337Z,10.20
2019-03-11T09:51:58.994Z,10.27
2019-03-11T09:54:48.567Z,10.80
2019-03-11T09:57:38.398Z,9.77
2019-03-11T10:00:27.755Z,10.30
2019-03-11T10:03:17.559Z,9.83
2019-03-11T10:06:07.054Z,9.70
2019-03-11T10:08:56.285Z,9.90
2019-03-11T10:11:45.947Z,9.67
2019-03-11T10:14:36.632Z,10.43
2019-03-11T10:17:26.307Z,9.80
2019-03-11T10:20:16.376Z,9.60
2019-03-11T10:23:05.340Z,9.37
2019-03-11T10:25:55.261Z,10.00
2019-03-11T10:28:44.810Z,9.63
2019-03-11T10:31:34.530Z,10.00
2019-03-11T10:34:24.439Z,9.97
2019-03-11T10:37:13.271Z,9.50
2019-03-11T10:40:02.672Z,9.83
2019-03-11T10:42:51.760Z,10.17
2019-03-11T10:45:41.269Z,9.97
2019-03-11T10:48:37.137Z,9.23
2019-03-11T10:51:21.293Z,9.83
2019-03-11T10:54:11.095Z,9.83
2019-03-11T10:57:00.693Z,9.33
2019-03-11T10:59:49.730Z,9.40
2019-03-11T11:02:39.264Z,9.40
2019-03-11T11:05:28.591Z,10.03
2019-03-11T11:08:18.607Z,9.53
2019-03-11T11:11:08.104Z,9.47
2019-03-11T11:13:57.129Z,9.30
2019-03-11T11:16:46.622Z,9.30
2019-03-11T11:19:36.580Z,9.97
2019-03-11T11:22:26.057Z,10.07
2019-03-11T11:25:17.283Z,9.80
2019-03-11T11:28:06.390Z,9.77
2019-03-11T11:30:55.857Z,9.33
2019-03-11T11:33:44.856Z,9.80
2019-03-11T11:36:33.924Z,9.43
2019-03-11T11:39:22.912Z,10.07
2019-03-11T11:42:12.442Z,9.43
2019-03-11T11:45:02.135Z,9.30
2019-03-11T11:47:51.188Z,9.43
2019-03-11T11:50:39.953Z,9.77
2019-03-11T11:53:30.034Z,9.87
2019-03-11T11:56:19.667Z,9.43
2019-03-11T11:59:09.267Z,9.40
2019-03-11T12:02:03.945Z,9.60
2019-03-11T12:04:49.160Z,9.20
2019-03-11T12:07:38.719Z,10.10
2019-03-11T12:10:27.900Z,9.40
2019-03-11T12:13:17.033Z,9.70
2019-03-11T12:16:08.715Z,9.57
2019-03-11T12:18:58.033Z,9.53
2019-03-11T12:21:47.688Z,9.80
2019-03-11T12:24:36.984Z,9.20
2019-03-11T12:27:25.798Z,9.40
2019-03-11T12:30:20.335Z,9.53
2019-03-11T12:33:10.176Z,9.40
2019-03-11T12:35:59.038Z,9.70
2019-03-11T12:38:48.560Z,9.47
2019-03-11T12:41:38.524Z,10.30
2019-03-11T12:44:27.466Z,9.53
2019-03-11T12:47:16.388Z,9.60
2019-03-11T12:50:06.211Z,9.57
2019-03-11T12:52:56.049Z,9.50
2019-03-11T12:55:45.121Z,9.53
2019-03-11T12:58:41.439Z,9.63
2019-03-11T13:01:25.792Z,9.80
2019-03-11T13:04:14.722Z,9.10
2019-03-11T13:07:04.368Z,9.53
2019-03-11T13:09:54.001Z,9.67
2019-03-11T13:12:43.448Z,9.20
2019-03-11T13:15:34.562Z,9.70
2019-03-11T13:18:38.642Z,9.10
2019-03-11T13:21:35.048Z,9.67
2019-03-11T13:24:23.795Z,9.30
2019-03-11T13:27:13.839Z,9.47
2019-03-11T13:30:03.534Z,9.30
2019-03-11T13:32:54.730Z,9.77
2019-03-11T13:35:44.212Z,9.53
2019-03-11T13:38:35.874Z,9.60
2019-03-11T13:41:24.890Z,9.50
2019-03-11T13:44:13.587Z,10.23
2019-03-11T13:47:02.439Z,10.40
2019-03-11T13:49:52.020Z,9.50
2019-03-11T13:52:41.388Z,9.50
2019-03-11T13:55:31.368Z,9.90
2019-03-11T13:58:21.155Z,10.20
2019-03-11T14:01:11.022Z,10.30
2019-03-11T14:04:00.918Z,10.37
2019-03-11T14:06:50.804Z,9.83
2019-03-11T14:09:40.528Z,9.77
2019-03-11T14:12:31.275Z,10.10
2019-03-11T14:15:20.966Z,10.40
2019-03-11T14:18:10.511Z,9.93
2019-03-11T14:21:01.171Z,9.70
2019-03-11T14:23:50.648Z,9.20
2019-03-11T14:26:40.554Z,9.40
2019-03-11T14:29:30.136Z,9.93
2019-03-11T14:32:20.188Z,9.50
2019-03-11T14:35:11.151Z,9.30
2019-03-11T14:38:00.794Z,10.90
2019-03-11T14:40:49.808Z,9.53
2019-03-11T14:43:41.305Z,9.40
2019-03-11T14:46:31.031Z,10.13
2019-03-11T14:49:19.758Z,16.07
2019-03-11T14:52:10.965Z,10.33
2019-03-11T14:55:00.706Z,10.13
2019-03-11T14:57:50.333Z,9.70
2019-03-11T15:00:39.490Z,9.67
2019-03-11T15:03:29.538Z,10.17
2019-03-11T15:06:18.923Z,9.47
2019-03-11T15:09:07.824Z,9.53
2019-03-11T15:11:57.759Z,10.27
2019-03-11T15:14:47.679Z,10.50
2019-03-11T15:17:36.902Z,10.20
2019-03-11T15:20:25.854Z,9.40
2019-03-11T15:23:20.459Z,9.90
2019-03-11T15:26:06.017Z,9.10
2019-03-11T15:28:56.614Z,9.87
2019-03-11T15:31:45.935Z,10.10
2019-03-11T15:34:35.082Z,10.30
2019-03-11T15:37:25.038Z,9.43
2019-03-11T15:40:14.158Z,9.90
2019-03-11T15:43:03.240Z,10.47
2019-03-11T15:45:52.436Z,10.10
2019-03-11T15:48:41.759Z,9.70
2019-03-11T15:51:36.623Z,9.50
2019-03-11T15:54:22.025Z,9.63
2019-03-11T15:57:11.830Z,9.10
2019-03-11T16:00:01.508Z,9.07
2019-03-11T16:02:52.066Z,9.63
2019-03-11T16:05:41.204Z,9.50
2019-03-11T16:08:31.350Z,9.53
2019-03-11T16:11:21.203Z,9.27
2019-03-11T16:14:10.343Z,9.50
2019-03-11T16:17:00.382Z,10.20
2019-03-11T16:19:49.735Z,9.63
2019-03-11T16:22:39.782Z,9.90
2019-03-11T16:25:28.708Z,11.07
2019-03-11T16:28:19.197Z,9.80
2019-03-11T16:31:09.216Z,10.50
2019-03-11T16:33:57.987Z,9.90
2019-03-11T16:36:47.766Z,10.13
2019-03-11T16:39:37.238Z,10.07
2019-03-11T16:42:26.161Z,9.83
2019-03-11T16:45:15.552Z,14.80
2019-03-11T16:48:04.626Z,10.27
2019-03-11T16:50:54.187Z,9.90
2019-03-11T16:53:43.850Z,13.30
2019-03-11T16:56:33.861Z,10.37
2019-03-11T16:59:22.895Z,10.83
2019-03-11T17:02:14.055Z,9.70
2019-03-11T17:05:04.097Z,10.37
2019-03-11T17:07:54.231Z,10.60
2019-03-11T17:10:43.350Z,10.40
2019-03-11T17:13:32.983Z,10.60
2019-03-11T17:16:22.212Z,9.70
2019-03-11T17:19:10.884Z,10.50
2019-03-11T17:22:00.293Z,10.33
2019-03-11T17:24:50.023Z,10.63
2019-03-11T17:27:39.969Z,10.60
2019-03-11T17:30:29.569Z,10.50
2019-03-11T17:33:19.804Z,9.97
2019-03-11T17:36:10.618Z,10.40
2019-03-11T17:39:00.136Z,10.77
2019-03-11T17:41:49.879Z,10.47
2019-03-11T17:44:39.707Z,10.20
2019-03-11T17:47:28.856Z,10.50
2019-03-11T17:50:18.292Z,10.40
2019-03-11T17:53:19.307Z,11.03
2019-03-11T17:55:59.961Z,10.67
2019-03-11T17:58:48.923Z,10.20
2019-03-11T18:01:38.222Z,10.30
2019-03-11T18:04:28.131Z,10.33
2019-03-11T18:07:17.883Z,10.40
2019-03-11T18:10:08.380Z,10.13
2019-03-11T18:12:57.864Z,10.60
2019-03-11T18:15:47.719Z,11.20
2019-03-11T18:18:37.467Z,11.40
2019-03-11T18:21:27.454Z,11.50
2019-03-11T18:24:16.999Z,10.93
2019-03-11T18:27:07.696Z,11.27
2019-03-11T18:29:57.419Z,11.03
2019-03-11T18:32:46.502Z,11.33
2019-03-11T18:35:36.447Z,10.73
2019-03-11T18:38:25.546Z,11.20
2019-03-11T18:41:14.548Z,11.80
2019-03-11T18:44:04.062Z,10.87
2019-03-11T18:46:54.943Z,11.20
2019-03-11T18:49:44.608Z,11.93
2019-03-11T18:52:33.560Z,11.43
2019-03-11T18:55:23.103Z,11.80
2019-03-11T18:58:12.477Z,11.07
2019-03-11T19:01:02.116Z,11.43
2019-03-11T19:03:51.887Z,11.23
2019-03-11T19:06:41.600Z,11.17
2019-03-11T19:09:31.399Z,11.40
2019-03-11T19:12:22.124Z,11.03
2019-03-11T19:15:15.352Z,11.20
2019-03-11T19:18:04.551Z,11.50
2019-03-11T19:20:54.442Z,11.37
2019-03-11T19:23:44.119Z,10.73
2019-03-11T19:26:33.304Z,10.77
2019-03-11T19:29:23.498Z,11.03
2019-03-11T19:32:13.711Z,11.60
2019-03-11T19:35:03.806Z,11.20
2019-03-11T19:37:54.548Z,10.07
2019-03-11T19:40:43.763Z,10.60
2019-03-11T19:43:33.764Z,11.03
2019-03-11T19:46:23.839Z,10.80
2019-03-11T19:49:12.891Z,11.37
2019-03-11T19:52:02.719Z,11.73
2019-03-11T19:54:52.543Z,11.17
2019-03-11T19:57:42.096Z,11.27
2019-03-11T20:00:31.807Z,11.20
2019-03-11T20:03:26.881Z,12.20
2019-03-11T20:06:11.963Z,11.77
2019-03-11T20:09:01.633Z,11.70
2019-03-11T20:11:54.077Z,11.83
2019-03-11T20:14:43.516Z,11.40
2019-03-11T20:17:32.984Z,11.83
2019-03-11T20:20:22.069Z,11.77
2019-03-11T20:23:11.020Z,12.20
2019-03-11T20:26:01.749Z,11.60
2019-03-11T20:28:51.877Z,11.90
2019-03-11T20:31:41.689Z,12.20
2019-03-11T20:34:31.260Z,12.63
2019-03-11T20:37:20.532Z,11.80
2019-03-11T20:40:09.630Z,11.80
2019-03-11T20:42:59.337Z,11.70
2019-03-11T20:45:48.943Z,12.37
2019-03-11T20:48:38.592Z,11.60
2019-03-11T20:51:28.380Z,12.43
2019-03-11T20:54:17.279Z,12.20
2019-03-11T20:57:07.040Z,11.50
2019-03-11T20:59:55.980Z,12.13
2019-03-11T21:02:45.032Z,11.37
2019-03-11T21:05:35.513Z,11.13
2019-03-11T21:08:25.526Z,11.13
2019-03-11T21:11:15.401Z,10.77
2019-03-11T21:14:04.533Z,10.80
2019-03-11T21:16:54.512Z,11.07
2019-03-11T21:19:43.936Z,10.60
2019-03-11T21:22:32.987Z,11.33
2019-03-11T21:25:23.023Z,10.43
2019-03-11T21:28:12.604Z,10.60
2019-03-11T21:31:01.723Z,10.67
2019-03-11T21:33:58.520Z,11.13
2019-03-11T21:36:41.040Z,10.67
2019-03-11T21:39:31.182Z,10.67
2019-03-11T21:42:21.272Z,10.27
2019-03-11T21:45:11.827Z,10.63
2019-03-11T21:48:01.487Z,10.37
2019-03-11T21:50:50.359Z,10.67
2019-03-11T21:53:40.146Z,10.50
2019-03-11T21:56:29.914Z,9.97
2019-03-11T21:59:18.950Z,10.07
2019-03-11T22:02:08.727Z,10.17
2019-03-11T22:04:58.476Z,10.20
2019-03-11T22:07:48.424Z,10.57
2019-03-11T22:10:37.287Z,9.60
2019-03-11T22:13:26.713Z,10.00
2019-03-11T22:16:16.341Z,10.30
2019-03-11T22:19:05.724Z,10.30
2019-03-11T22:21:55.192Z,9.70
2019-03-11T22:24:44.668Z,10.13
2019-03-11T22:27:33.934Z,9.97
2019-03-11T22:30:23.872Z,10.10
2019-03-11T22:33:13.402Z,10.20
2019-03-11T22:36:02.945Z,9.87
2019-03-11T22:38:52.397Z,10.10
2019-03-11T22:41:42.334Z,11.10
2019-03-11T22:44:31.675Z,10.77
2019-03-11T22:47:21.334Z,10.73
2019-03-11T22:50:10.630Z,10.27
2019-03-11T22:53:00.051Z,10.70
2019-03-11T22:55:48.756Z,10.83
2019-03-11T22:58:38.604Z,10.67
2019-03-11T23:01:27.738Z,10.67
2019-03-11T23:04:17.480Z,10.97
2019-03-11T23:07:08.480Z,11.00
2019-03-11T23:09:57.376Z,11.33
2019-03-11T23:12:46.803Z,12.00
2019-03-11T23:15:36.224Z,11.70
2019-03-11T23:18:26.295Z,12.97
2019-03-11T23:21:15.947Z,12.33
2019-03-11T23:24:05.774Z,12.87
2019-03-11T23:26:54.576Z,12.63
2019-03-11T23:29:43.427Z,12.50
2019-03-11T23:32:33.158Z,12.43
2019-03-11T23:35:22.218Z,12.67
2019-03-11T23:38:11.235Z,12.10
2019-03-11T23:41:00.791Z,11.60
2019-03-11T23:43:51.761Z,12.37
2019-03-11T23:46:41.420Z,13.30
2019-03-11T23:49:30.813Z,12.93
2019-03-11T23:52:20.547Z,13.33
2019-03-11T23:55:09.822Z,13.20
2019-03-11T23:57:59.601Z,12.37
